createdAt,value
2017-08-21T00:01:52.892Z,98793.39
2017-08-21T00:04:21.282Z,98790.81
2017-08-21T00:06:49.661Z,98794.23
2017-08-21T00:09:18.060Z,98794.67
2017-08-21T00:11:46.458Z,98796.81
2017-08-21T00:14:15.625Z,98797.69
2017-08-21T00:16:43.995Z,98806.70
2017-08-21T00:19:12.387Z,98807.14
2017-08-21T00:21:40.770Z,98812.29
2017-08-21T00:24:09.151Z,98813.58
2017-08-21T00:26:37.559Z,98805.44
2017-08-21T00:29:06.705Z,98802.44
2017-08-21T00:31:35.111Z,98811.00
2017-08-21T00:34:03.500Z,98812.75
2017-08-21T00:36:31.900Z,98810.16
2017-08-21T00:39:01.056Z,98810.16
2017-08-21T00:41:29.441Z,98814.44
2017-08-21T00:43:57.840Z,98812.75
2017-08-21T00:46:26.242Z,98806.32
2017-08-21T00:48:54.631Z,98805.91
2017-08-21T00:51:23.010Z,98804.20
2017-08-21T00:53:52.184Z,98800.31
2017-08-21T00:56:20.575Z,98800.31
2017-08-21T00:58:49.744Z,98799.91
2017-08-21T01:01:18.127Z,98805.06
2017-08-21T01:03:46.504Z,98799.47
2017-08-21T01:06:14.896Z,98803.75
2017-08-21T01:08:43.265Z,98802.89
2017-08-21T01:11:11.680Z,98802.01
2017-08-21T01:13:40.823Z,98799.88
2017-08-21T01:16:09.202Z,98808.04
2017-08-21T01:18:37.599Z,98803.73
2017-08-21T01:21:05.975Z,98793.88
2017-08-21T01:23:34.345Z,98789.59
2017-08-21T01:26:02.762Z,98799.88
2017-08-21T01:28:31.151Z,98800.75
2017-08-21T01:30:59.561Z,98800.33
2017-08-21T01:33:27.943Z,98794.34
2017-08-21T01:35:57.231Z,98787.50
2017-08-21T01:38:26.385Z,98789.63
2017-08-21T01:40:54.764Z,98789.19
2017-08-21T01:43:23.158Z,98787.92
2017-08-21T01:45:51.536Z,98790.06
2017-08-21T01:48:19.911Z,98786.21
2017-08-21T01:50:48.325Z,98782.80
2017-08-21T01:53:16.698Z,98788.79
2017-08-21T01:55:45.094Z,98778.49
2017-08-21T01:58:13.470Z,98791.36
2017-08-21T02:00:41.861Z,98785.80
2017-08-21T02:03:10.236Z,98790.06
2017-08-21T02:05:38.641Z,98789.65
2017-08-21T02:08:07.794Z,98787.48
2017-08-21T02:10:36.193Z,98788.36
2017-08-21T02:13:04.576Z,98788.80
2017-08-21T02:15:32.999Z,98784.49
2017-08-21T02:18:01.376Z,98789.20
2017-08-21T02:20:29.757Z,98793.92
2017-08-21T02:22:58.183Z,98788.77
2017-08-21T02:25:26.568Z,98790.91
2017-08-21T02:27:54.987Z,98793.92
2017-08-21T02:30:24.131Z,98791.78
2017-08-21T02:32:52.576Z,98791.36
2017-08-21T02:35:20.986Z,98794.80
2017-08-21T02:37:49.375Z,98784.49
2017-08-21T02:40:17.793Z,98790.92
2017-08-21T02:42:46.169Z,98783.23
2017-08-21T02:45:14.550Z,98794.35
2017-08-21T02:47:42.955Z,98795.64
2017-08-21T02:50:12.121Z,98796.05
2017-08-21T02:52:40.494Z,98793.44
2017-08-21T02:55:08.896Z,98783.59
2017-08-21T02:57:37.277Z,98788.73
2017-08-21T03:00:05.685Z,98795.56
2017-08-21T03:02:34.062Z,98792.19
2017-08-21T03:05:02.441Z,98789.16
2017-08-21T03:07:31.612Z,98788.30
2017-08-21T03:09:59.984Z,98789.14
2017-08-21T03:12:28.393Z,98784.45
2017-08-21T03:14:57.534Z,98781.86
2017-08-21T03:17:25.934Z,98781.45
2017-08-21T03:19:54.325Z,98782.72
2017-08-21T03:22:22.735Z,98781.02
2017-08-21T03:24:51.896Z,98788.27
2017-08-21T03:27:20.269Z,98784.77
2017-08-21T03:29:48.674Z,98787.31
2017-08-21T03:32:17.056Z,98787.30
2017-08-21T03:34:45.474Z,98781.72
2017-08-21T03:37:13.864Z,98776.61
2017-08-21T03:39:42.275Z,98777.86
2017-08-21T03:42:10.660Z,98782.16
2017-08-21T03:44:39.044Z,98781.30
2017-08-21T03:47:07.457Z,98777.42
2017-08-21T03:49:35.825Z,98779.58
2017-08-21T03:52:04.202Z,98788.55
2017-08-21T03:54:32.625Z,98798.77
2017-08-21T03:57:01.001Z,98799.22
2017-08-21T03:59:30.311Z,98797.50
2017-08-21T04:01:58.694Z,98804.63
2017-08-21T04:04:27.066Z,98801.67
2017-08-21T04:06:55.484Z,98804.62
2017-08-21T04:09:23.880Z,98802.51
2017-08-21T04:11:52.297Z,98803.42
2017-08-21T04:14:20.694Z,98806.02
2017-08-21T04:16:49.095Z,98807.36
2017-08-21T04:19:17.490Z,98802.72
2017-08-21T04:21:45.902Z,98806.52
2017-08-21T04:24:14.292Z,98806.14
2017-08-21T04:26:42.693Z,98803.98
2017-08-21T04:29:11.871Z,98811.28
2017-08-21T04:31:40.259Z,98808.72
2017-08-21T04:34:08.698Z,98813.86
2017-08-21T04:36:37.086Z,98811.73
2017-08-21T04:39:05.492Z,98817.31
2017-08-21T04:41:33.880Z,98811.33
2017-08-21T04:44:02.254Z,98816.05
2017-08-21T04:46:30.657Z,98815.20
2017-08-21T04:48:59.044Z,98813.09
2017-08-21T04:51:28.202Z,98810.06
2017-08-21T04:53:56.625Z,98821.63
2017-08-21T04:56:25.005Z,98816.52
2017-08-21T04:58:53.420Z,98807.08
2017-08-21T05:01:21.819Z,98810.93
2017-08-21T05:03:50.195Z,98815.19
2017-08-21T05:06:18.614Z,98808.75
2017-08-21T05:08:47.757Z,98816.89
2017-08-21T05:11:16.158Z,98817.77
2017-08-21T05:13:44.566Z,98814.80
2017-08-21T05:16:13.256Z,98816.53
2017-08-21T05:18:41.664Z,98822.18
2017-08-21T05:21:10.823Z,98823.90
2017-08-21T05:23:39.206Z,98823.92
2017-08-21T05:26:07.608Z,98830.77
2017-08-21T05:28:35.998Z,98833.77
2017-08-21T05:31:05.183Z,98830.77
2017-08-21T05:33:33.577Z,98833.36
2017-08-21T05:36:01.973Z,98830.35
2017-08-21T05:38:30.372Z,98829.05
2017-08-21T05:40:58.751Z,98833.34
2017-08-21T05:43:27.211Z,98834.61
2017-08-21T05:45:55.601Z,98838.44
2017-08-21T05:48:23.991Z,98837.59
2017-08-21T05:50:52.397Z,98831.55
2017-08-21T05:53:20.811Z,98833.28
2017-08-21T05:55:49.190Z,98837.98
2017-08-21T05:58:17.559Z,98834.12
2017-08-21T06:00:45.957Z,98841.42
2017-08-21T06:03:14.461Z,98842.28
2017-08-21T06:05:43.628Z,98845.30
2017-08-21T06:08:12.027Z,98845.26
2017-08-21T06:10:40.430Z,98850.40
2017-08-21T06:13:09.584Z,98851.25
2017-08-21T06:15:37.993Z,98850.84
2017-08-21T06:18:06.367Z,98848.67
2017-08-21T06:20:36.003Z,98854.66
2017-08-21T06:23:04.383Z,98856.80
2017-08-21T06:25:32.765Z,98856.81
2017-08-21T06:28:01.939Z,98864.57
2017-08-21T06:30:30.308Z,98864.56
2017-08-21T06:32:58.700Z,98868.39
2017-08-21T06:35:27.079Z,98865.37
2017-08-21T06:37:55.494Z,98869.65
2017-08-21T06:40:23.861Z,98869.62
2017-08-21T06:42:53.035Z,98865.30
2017-08-21T06:45:21.405Z,98864.41
2017-08-21T06:47:49.806Z,98856.64
2017-08-21T06:50:18.192Z,98862.17
2017-08-21T06:52:46.603Z,98856.13
2017-08-21T06:55:14.978Z,98854.77
2017-08-21T06:57:43.386Z,98850.83
2017-08-21T07:00:11.773Z,98856.81
2017-08-21T07:02:40.172Z,98857.12
2017-08-21T07:05:08.562Z,98851.01
2017-08-21T07:07:36.936Z,98853.53
2017-08-21T07:10:05.343Z,98857.72
2017-08-21T07:12:33.715Z,98851.13
2017-08-21T07:15:02.128Z,98854.90
2017-08-21T07:17:30.516Z,98851.80
2017-08-21T07:19:58.917Z,98844.80
2017-08-21T07:22:27.327Z,98845.15
2017-08-21T07:24:55.715Z,98849.31
2017-08-21T07:27:24.127Z,98839.34
2017-08-21T07:29:52.544Z,98842.37
2017-08-21T07:32:20.942Z,98845.27
2017-08-21T07:34:49.353Z,98836.86
2017-08-21T07:37:17.751Z,98834.58
2017-08-21T07:39:46.185Z,98836.27
2017-08-21T07:42:14.565Z,98831.83
2017-08-21T07:44:42.937Z,98835.76
2017-08-21T07:47:11.352Z,98831.63
2017-08-21T07:49:39.754Z,98836.95
2017-08-21T07:52:08.186Z,98836.39
2017-08-21T07:54:36.554Z,98839.46
2017-08-21T07:57:04.939Z,98837.85
2017-08-21T07:59:33.345Z,98835.16
2017-08-21T08:02:01.729Z,98829.69
2017-08-21T08:04:30.130Z,98828.48
2017-08-21T08:06:58.543Z,98828.90
2017-08-21T08:09:26.932Z,98829.88
2017-08-21T08:11:55.330Z,98831.95
2017-08-21T08:14:23.693Z,98831.93
2017-08-21T08:16:52.057Z,98828.41
2017-08-21T08:19:20.452Z,98830.30
2017-08-21T08:21:48.819Z,98831.19
2017-08-21T08:24:17.213Z,98830.48
2017-08-21T08:26:45.621Z,98835.57
2017-08-21T08:29:14.003Z,98823.41
2017-08-21T08:31:42.370Z,98827.03
2017-08-21T08:34:10.737Z,98825.88
2017-08-21T08:36:39.151Z,98821.07
2017-08-21T08:39:07.528Z,98817.79
2017-08-21T08:41:35.918Z,98818.59
2017-08-21T08:44:04.285Z,98816.85
2017-08-21T08:46:32.686Z,98815.80
2017-08-21T08:49:01.068Z,98820.31
2017-08-21T08:51:29.482Z,98815.73
2017-08-21T08:53:57.868Z,98810.76
2017-08-21T08:56:27.019Z,98815.52
2017-08-21T08:58:55.424Z,98813.58
2017-08-21T09:01:23.793Z,98808.70
2017-08-21T09:03:52.215Z,98812.34
2017-08-21T09:06:21.363Z,98812.30
2017-08-21T09:08:49.761Z,98810.38
2017-08-21T09:11:18.146Z,98811.23
2017-08-21T09:13:46.552Z,98812.14
2017-08-21T09:16:15.700Z,98806.95
2017-08-21T09:18:44.073Z,98811.55
2017-08-21T09:21:12.472Z,98812.61
2017-08-21T09:23:40.853Z,98818.85
2017-08-21T09:26:09.279Z,98817.84
2017-08-21T09:28:37.711Z,98818.98
2017-08-21T09:31:06.118Z,98822.34
2017-08-21T09:33:34.500Z,98816.22
2017-08-21T09:36:02.892Z,98820.53
2017-08-21T09:38:31.269Z,98821.41
2017-08-21T09:40:59.638Z,98830.62
2017-08-21T09:43:28.047Z,98826.20
2017-08-21T09:45:56.410Z,98830.34
2017-08-21T09:48:24.803Z,98825.36
2017-08-21T09:50:53.959Z,98821.76
2017-08-21T09:53:22.369Z,98825.23
2017-08-21T09:55:50.755Z,98831.80
2017-08-21T09:58:19.128Z,98822.70
2017-08-21T10:00:47.536Z,98827.21
2017-08-21T10:03:15.916Z,98826.78
2017-08-21T10:05:45.071Z,98827.55
2017-08-21T10:08:13.453Z,98830.85
2017-08-21T10:10:41.864Z,98829.88
2017-08-21T10:13:39.488Z,98823.79
2017-08-21T10:16:07.898Z,98812.97
2017-08-21T10:18:36.280Z,98817.89
2017-08-21T10:21:04.699Z,98812.75
2017-08-21T10:23:33.100Z,98818.91
2017-08-21T10:26:01.483Z,98817.84
2017-08-21T10:28:29.890Z,98813.41
2017-08-21T10:30:58.261Z,98819.40
2017-08-21T10:33:26.644Z,98821.25
2017-08-21T10:35:55.041Z,98822.91
2017-08-21T10:38:23.422Z,98814.13
2017-08-21T10:40:51.823Z,98809.86
2017-08-21T10:43:20.207Z,98808.66
2017-08-21T10:45:48.620Z,98803.23
2017-08-21T10:48:16.989Z,98810.39
2017-08-21T10:50:45.400Z,98810.78
2017-08-21T10:53:13.786Z,98807.38
2017-08-21T10:55:42.177Z,98808.27
2017-08-21T10:58:10.601Z,98803.42
2017-08-21T11:00:39.002Z,98798.02
2017-08-21T11:03:07.421Z,98792.56
2017-08-21T11:05:35.813Z,98791.09
2017-08-21T11:08:04.195Z,98785.81
2017-08-21T11:10:32.589Z,98777.42
2017-08-21T11:13:00.984Z,98785.39
2017-08-21T11:15:29.384Z,98779.03
2017-08-21T11:17:57.779Z,98780.13
2017-08-21T11:20:26.171Z,98784.97
2017-08-21T11:22:54.576Z,98781.27
2017-08-21T11:25:22.943Z,98789.19
2017-08-21T11:27:51.319Z,98782.71
2017-08-21T11:30:19.730Z,98786.39
2017-08-21T11:32:48.103Z,98782.13
2017-08-21T11:35:16.515Z,98776.24
2017-08-21T11:37:44.889Z,98774.64
2017-08-21T11:40:13.299Z,98777.67
2017-08-21T11:42:41.665Z,98776.03
2017-08-21T11:45:10.074Z,98773.14
2017-08-21T11:47:38.450Z,98767.64
2017-08-21T11:50:06.828Z,98764.73
2017-08-21T11:52:35.224Z,98766.80
2017-08-21T11:55:03.583Z,98763.78
2017-08-21T11:57:31.975Z,98767.50
2017-08-21T12:00:00.383Z,98765.81
2017-08-21T12:02:28.767Z,98759.42
2017-08-21T12:04:57.129Z,98757.27
2017-08-21T12:07:25.508Z,98756.13
2017-08-21T12:09:53.874Z,98757.66
2017-08-21T12:12:22.292Z,98752.07
2017-08-21T12:14:50.687Z,98753.48
2017-08-21T12:17:19.099Z,98742.50
2017-08-21T12:19:47.465Z,98739.39
2017-08-21T12:22:15.857Z,98739.73
2017-08-21T12:24:44.263Z,98742.08
2017-08-21T12:27:12.654Z,98737.58
2017-08-21T12:29:41.051Z,98736.97
2017-08-21T12:32:09.430Z,98737.00
2017-08-21T12:34:37.807Z,98734.80
2017-08-21T12:37:06.206Z,98744.08
2017-08-21T12:39:34.602Z,98739.29
2017-08-21T12:42:03.013Z,98726.73
2017-08-21T12:44:31.413Z,98731.48
2017-08-21T12:46:59.803Z,98731.62
2017-08-21T12:49:28.203Z,98729.80
2017-08-21T12:51:56.641Z,98731.41
2017-08-21T12:54:25.018Z,98727.81
2017-08-21T12:56:53.432Z,98727.68
2017-08-21T12:59:21.815Z,98726.67
2017-08-21T13:01:50.203Z,98728.58
2017-08-21T13:04:18.610Z,98728.76
2017-08-21T13:06:46.992Z,98726.55
2017-08-21T13:09:15.427Z,98720.46
2017-08-21T13:11:43.788Z,98723.11
2017-08-21T13:14:12.190Z,98727.17
2017-08-21T13:16:40.571Z,98723.09
2017-08-21T13:19:08.972Z,98722.09
2017-08-21T13:21:37.351Z,98720.63
2017-08-21T13:24:05.753Z,98711.13
2017-08-21T13:26:34.138Z,98702.67
2017-08-21T13:29:02.515Z,98711.92
2017-08-21T13:31:30.939Z,98705.51
2017-08-21T13:33:59.325Z,98701.61
2017-08-21T13:36:27.740Z,98698.02
2017-08-21T13:38:56.106Z,98703.63
2017-08-21T13:41:24.516Z,98708.44
2017-08-21T13:43:52.881Z,98716.02
2017-08-21T13:46:21.304Z,98713.63
2017-08-21T13:48:49.700Z,98719.47
2017-08-21T13:51:18.080Z,98713.22
2017-08-21T13:53:46.494Z,98705.85
2017-08-21T13:56:14.877Z,98695.84
2017-08-21T13:58:43.283Z,98700.72
2017-08-21T14:01:11.654Z,98691.38
2017-08-21T14:03:40.040Z,98694.42
2017-08-21T14:06:08.452Z,98682.02
2017-08-21T14:08:36.834Z,98689.02
2017-08-21T14:11:05.220Z,98681.39
2017-08-21T14:13:33.654Z,98675.99
2017-08-21T14:16:02.045Z,98675.25
2017-08-21T14:18:30.455Z,98682.16
2017-08-21T14:20:58.820Z,98676.45
2017-08-21T14:23:27.223Z,98676.63
2017-08-21T14:25:55.601Z,98670.28
2017-08-21T14:28:23.997Z,98671.73
2017-08-21T14:30:52.369Z,98671.20
2017-08-21T14:33:20.772Z,98681.95
2017-08-21T14:35:49.197Z,98686.25
2017-08-21T14:38:17.601Z,98685.22
2017-08-21T14:40:45.992Z,98686.55
2017-08-21T14:43:14.387Z,98684.88
2017-08-21T14:45:42.767Z,98677.86
2017-08-21T14:48:11.172Z,98681.26
2017-08-21T14:50:39.537Z,98676.53
2017-08-21T14:53:07.915Z,98680.23
2017-08-21T14:55:36.313Z,98681.34
2017-08-21T14:58:04.685Z,98688.38
2017-08-21T15:00:33.060Z,98680.78
2017-08-21T15:03:01.449Z,98687.42
2017-08-21T15:05:29.813Z,98683.30
2017-08-21T15:07:58.173Z,98669.14
2017-08-21T15:10:26.592Z,98669.08
2017-08-21T15:12:54.991Z,98671.81
2017-08-21T15:15:23.386Z,98662.17
2017-08-21T15:17:51.753Z,98660.05
2017-08-21T15:20:20.113Z,98661.03
2017-08-21T15:22:48.513Z,98670.48
2017-08-21T15:25:16.890Z,98661.86
2017-08-21T15:27:45.293Z,98653.24
2017-08-21T15:30:13.672Z,98654.05
2017-08-21T15:32:42.033Z,98653.37
2017-08-21T15:35:10.439Z,98655.66
2017-08-21T15:37:38.808Z,98656.62
2017-08-21T15:40:07.214Z,98660.29
2017-08-21T15:42:35.573Z,98661.30
2017-08-21T15:45:03.938Z,98667.72
2017-08-21T15:47:32.345Z,98666.55
2017-08-21T15:50:00.710Z,98671.34
2017-08-21T15:52:29.081Z,98670.38
2017-08-21T15:54:57.484Z,98674.17
2017-08-21T15:57:25.882Z,98681.80
2017-08-21T15:59:54.279Z,98678.00
2017-08-21T16:02:22.662Z,98674.27
2017-08-21T16:04:51.051Z,98675.89
2017-08-21T16:07:19.476Z,98672.57
2017-08-21T16:09:47.842Z,98675.86
2017-08-21T16:12:16.228Z,98677.88
2017-08-21T16:14:44.642Z,98665.48
2017-08-21T16:17:13.039Z,98663.33
2017-08-21T16:19:41.795Z,98666.63
2017-08-21T16:22:10.243Z,98670.33
2017-08-21T16:24:38.615Z,98672.14
2017-08-21T16:27:07.031Z,98676.79
2017-08-21T16:29:35.419Z,98675.53
2017-08-21T16:32:03.808Z,98672.27
2017-08-21T16:34:32.209Z,98669.45
2017-08-21T16:37:00.584Z,98666.87
2017-08-21T16:39:28.975Z,98669.42
2017-08-21T16:41:57.390Z,98671.92
2017-08-21T16:44:25.773Z,98672.52
2017-08-21T16:46:54.188Z,98674.36
2017-08-21T16:49:22.579Z,98670.75
2017-08-21T16:51:50.960Z,98667.60
2017-08-21T16:54:19.368Z,98666.69
2017-08-21T16:56:47.729Z,98669.52
2017-08-21T16:59:16.116Z,98672.56
2017-08-21T17:01:44.509Z,98674.34
2017-08-21T17:04:12.887Z,98687.08
2017-08-21T17:06:41.303Z,98680.41
2017-08-21T17:09:09.699Z,98685.11
2017-08-21T17:11:38.082Z,98686.34
2017-08-21T17:14:06.486Z,98679.95
2017-08-21T17:16:34.861Z,98679.40
2017-08-21T17:19:03.378Z,98685.63
2017-08-21T17:21:31.805Z,98678.34
2017-08-21T17:24:00.183Z,98676.89
2017-08-21T17:26:28.578Z,98682.09
2017-08-21T17:28:56.964Z,98680.32
2017-08-21T17:31:25.343Z,98676.47
2017-08-21T17:33:53.755Z,98679.59
2017-08-21T17:36:22.123Z,98679.45
2017-08-21T17:38:51.432Z,98677.10
2017-08-21T17:41:19.850Z,98675.63
2017-08-21T17:43:48.239Z,98671.50
2017-08-21T17:46:16.645Z,98675.66
2017-08-21T17:48:45.011Z,98679.08
2017-08-21T17:51:13.415Z,98681.94
2017-08-21T17:53:41.791Z,98685.56
2017-08-21T17:56:10.199Z,98690.31
2017-08-21T17:58:38.579Z,98690.03
2017-08-21T18:01:06.944Z,98690.28
2017-08-21T18:03:35.356Z,98691.88
2017-08-21T18:06:03.739Z,98697.53
2017-08-21T18:08:32.247Z,98698.25
2017-08-21T18:11:00.645Z,98699.84
2017-08-21T18:13:29.102Z,98696.41
2017-08-21T18:15:57.476Z,98694.97
2017-08-21T18:18:25.871Z,98699.66
2017-08-21T18:20:54.234Z,98698.28
2017-08-21T18:23:22.601Z,98697.25
2017-08-21T18:25:51.007Z,98701.29
2017-08-21T18:28:19.392Z,98699.77
2017-08-21T18:30:47.771Z,98706.53
2017-08-21T18:33:16.171Z,98701.06
2017-08-21T18:35:44.543Z,98710.37
2017-08-21T18:38:12.933Z,98706.80
2017-08-21T18:40:41.318Z,98703.91
2017-08-21T18:43:09.705Z,98712.78
2017-08-21T18:45:38.131Z,98715.51
2017-08-21T18:48:06.619Z,98709.12
2017-08-21T18:50:35.361Z,98706.44
2017-08-21T18:53:03.725Z,98703.34
2017-08-21T18:55:32.095Z,98709.02
2017-08-21T18:58:00.501Z,98709.23
2017-08-21T19:00:28.892Z,98704.83
2017-08-21T19:02:57.310Z,98710.28
2017-08-21T19:05:25.690Z,98712.66
2017-08-21T19:07:54.106Z,98710.77
2017-08-21T19:10:22.481Z,98705.12
2017-08-21T19:12:50.862Z,98711.20
2017-08-21T19:15:19.315Z,98716.83
2017-08-21T19:17:47.713Z,98716.84
2017-08-21T19:20:16.076Z,98726.31
2017-08-21T19:22:44.479Z,98729.77
2017-08-21T19:25:12.841Z,98738.72
2017-08-21T19:27:41.217Z,98736.59
2017-08-21T19:30:09.743Z,98733.16
2017-08-21T19:32:38.140Z,98731.72
2017-08-21T19:35:06.535Z,98727.87
2017-08-21T19:37:34.968Z,98727.48
2017-08-21T19:40:03.359Z,98731.97
2017-08-21T19:42:31.741Z,98733.98
2017-08-21T19:45:00.158Z,98737.00
2017-08-21T19:47:28.654Z,98736.20
2017-08-21T19:49:57.070Z,98739.31
2017-08-21T19:52:25.485Z,98741.85
2017-08-21T19:54:53.868Z,98741.42
2017-08-21T19:57:22.277Z,98745.34
2017-08-21T19:59:50.689Z,98752.72
2017-08-21T20:02:19.061Z,98754.12
2017-08-21T20:04:47.470Z,98755.03
2017-08-21T20:07:15.856Z,98746.59
2017-08-21T20:09:44.247Z,98754.38
2017-08-21T20:12:12.645Z,98749.23
2017-08-21T20:14:41.043Z,98747.09
2017-08-21T20:17:09.423Z,98757.48
2017-08-21T20:19:37.826Z,98758.51
2017-08-21T20:22:08.152Z,98765.02
2017-08-21T20:24:36.581Z,98759.96
2017-08-21T20:27:05.172Z,98754.44
2017-08-21T20:29:34.144Z,98748.44
2017-08-21T20:32:02.728Z,98749.93
2017-08-21T20:34:31.245Z,98749.08
2017-08-21T20:36:59.628Z,98755.97
2017-08-21T20:39:28.028Z,98755.12
2017-08-21T20:41:56.407Z,98761.61
2017-08-21T20:44:24.778Z,98759.53
2017-08-21T20:46:53.191Z,98759.20
2017-08-21T20:49:21.677Z,98752.86
2017-08-21T20:51:50.219Z,98749.87
2017-08-21T20:54:18.622Z,98745.25
2017-08-21T20:56:46.985Z,98752.49
2017-08-21T20:59:15.420Z,98744.33
2017-08-21T21:01:43.787Z,98750.95
2017-08-21T21:04:12.177Z,98750.61
2017-08-21T21:06:40.561Z,98750.17
2017-08-21T21:09:08.975Z,98751.02
2017-08-21T21:11:37.353Z,98747.92
2017-08-21T21:14:05.713Z,98753.52
2017-08-21T21:16:34.136Z,98760.98
2017-08-21T21:19:02.528Z,98770.47
2017-08-21T21:21:30.947Z,98772.20
2017-08-21T21:23:59.327Z,98761.88
2017-08-21T21:26:27.744Z,98763.60
2017-08-21T21:28:56.114Z,98754.14
2017-08-21T21:31:24.567Z,98761.91
2017-08-21T21:33:52.987Z,98766.30
2017-08-21T21:36:21.379Z,98771.43
2017-08-21T21:38:49.796Z,98773.13
2017-08-21T21:41:18.164Z,98770.11
2017-08-21T21:43:46.586Z,98767.98
2017-08-21T21:46:14.969Z,98771.06
2017-08-21T21:48:43.351Z,98775.34
2017-08-21T21:51:11.755Z,98765.02
2017-08-21T21:53:40.139Z,98762.02
2017-08-21T21:56:08.533Z,98759.91
2017-08-21T21:58:36.920Z,98755.19
2017-08-21T22:01:05.332Z,98759.06
2017-08-21T22:03:33.742Z,98764.20
2017-08-21T22:06:02.127Z,98763.00
2017-08-21T22:08:30.549Z,98758.33
2017-08-21T22:11:04.527Z,98754.89
2017-08-21T22:13:37.718Z,98753.17
2017-08-21T22:16:06.343Z,98747.59
2017-08-21T22:18:38.613Z,98753.19
2017-08-21T22:21:06.997Z,98760.49
2017-08-21T22:23:39.434Z,98761.77
2017-08-21T22:26:07.917Z,98763.47
2017-08-21T22:28:36.293Z,98756.63
2017-08-21T22:31:04.717Z,98752.34
2017-08-21T22:33:33.103Z,98755.76
2017-08-21T22:36:01.547Z,98753.63
2017-08-21T22:38:29.950Z,98755.76
2017-08-21T22:40:58.321Z,98747.60
2017-08-21T22:43:26.722Z,98757.50
2017-08-21T22:45:55.165Z,98758.79
2017-08-21T22:48:23.605Z,98749.78
2017-08-21T22:50:51.985Z,98748.08
2017-08-21T22:53:20.396Z,98751.94
2017-08-21T22:55:49.759Z,98753.22
2017-08-21T22:58:18.295Z,98757.09
2017-08-21T23:00:46.980Z,98754.95
2017-08-21T23:03:15.473Z,98748.53
2017-08-21T23:05:44.577Z,98756.21
2017-08-21T23:08:17.819Z,98748.92
2017-08-21T23:10:47.119Z,98754.05
2017-08-21T23:13:15.936Z,98754.91
2017-08-21T23:15:44.323Z,98745.48
2017-08-21T23:18:12.733Z,98748.92
2017-08-21T23:20:41.123Z,98736.09
2017-08-21T23:23:09.533Z,98739.11
2017-08-21T23:25:37.920Z,98739.53
2017-08-21T23:28:06.322Z,98728.41
2017-08-21T23:30:34.769Z,98721.13
2017-08-21T23:33:03.138Z,98732.69
2017-08-21T23:35:31.551Z,98738.67
2017-08-21T23:38:00.309Z,98726.69
2017-08-21T23:40:28.705Z,98735.70
2017-08-21T23:42:57.655Z,98735.70
2017-08-21T23:45:26.073Z,98736.12
2017-08-21T23:47:54.531Z,98740.83
2017-08-21T23:50:24.651Z,98741.23
2017-08-21T23:52:54.388Z,98734.39
2017-08-21T23:55:22.974Z,98726.68
2017-08-21T23:57:51.396Z,98728.83
